Time;durP1;ratioP1;P1;durP2;ratioP2;P2;SDS_P1;SDS_P2;PMS_P1;PMS_P2;Temp;Humidity;BMP_temperature;BMP_pressure;BME280_temperature;BME280_humidity;BME280_pressure;Samples;Min_cycle;Max_cycle;Signal;HPM_P1;HPM_P2
2023/04/16 00:00:27;;;;;;;9.18;2.53;;;;;;;7.44;97.84;102140.22;4894198;29;20061;-68
2023/04/16 00:02:52;;;;;;;18.70;2.60;;;;;;;7.41;98.16;102138.44;4895869;29;20067;-67
2023/04/16 00:05:18;;;;;;;13.68;2.92;;;;;;;7.42;97.93;102140.22;4896074;29;20043;-68
2023/04/16 00:07:43;;;;;;;16.60;2.85;;;;;;;7.41;97.70;102138.44;4894450;29;20502;-68
2023/04/16 00:10:09;;;;;;;11.25;2.58;;;;;;;7.40;98.35;102139.31;4879119;29;20053;-67
2023/04/16 00:12:35;;;;;;;14.73;3.15;;;;;;;7.42;98.50;102137.59;4896504;29;20071;-69
2023/04/16 00:15:00;;;;;;;13.50;2.83;;;;;;;7.44;97.77;102142.84;4899456;29;20063;-68
2023/04/16 00:17:26;;;;;;;13.50;2.65;;;;;;;7.41;98.35;102129.66;4906660;29;20452;-68
2023/04/16 00:19:51;;;;;;;11.68;3.03;;;;;;;7.42;98.18;102141.94;4899805;29;20036;-68
2023/04/16 00:22:17;;;;;;;11.50;3.22;;;;;;;7.43;98.65;102133.19;4899275;29;20049;-68
2023/04/16 00:24:42;;;;;;;7.05;2.65;;;;;;;7.45;97.44;102145.53;4898041;29;20024;-68
2023/04/16 00:27:08;;;;;;;9.27;2.58;;;;;;;7.48;98.05;102131.50;4899315;29;20041;-68
2023/04/16 00:29:33;;;;;;;13.55;3.35;;;;;;;7.46;99.11;102136.75;4899113;29;20033;-68
2023/04/16 00:32:00;;;;;;;13.05;2.60;;;;;;;7.48;97.55;102134.13;4882174;29;20047;-68
2023/04/16 00:34:26;;;;;;;10.68;3.08;;;;;;;7.49;98.96;102136.81;4897847;29;20036;-68
2023/04/16 00:36:51;;;;;;;16.75;3.78;;;;;;;7.45;99.58;102134.97;4893979;29;20131;-69
2023/04/16 00:39:17;;;;;;;11.40;2.97;;;;;;;7.48;99.82;102142.03;4897301;29;20116;-69
2023/04/16 00:41:43;;;;;;;15.43;3.28;;;;;;;7.45;99.61;102137.63;4901297;29;20048;-69
2023/04/16 00:44:08;;;;;;;13.75;3.13;;;;;;;7.42;99.92;102134.03;4881964;29;20032;-68
2023/04/16 00:46:36;;;;;;;11.15;3.47;;;;;;;7.42;99.74;102136.69;4881891;29;20099;-68
2023/04/16 00:49:02;;;;;;;11.98;3.25;;;;;;;7.40;100.00;102131.41;4881720;29;20099;-68
2023/04/16 00:51:29;;;;;;;12.70;3.53;;;;;;;7.42;100.00;102129.69;4903256;29;20036;-68
2023/04/16 00:53:56;;;;;;;16.75;4.47;;;;;;;7.41;100.00;102130.53;4917511;29;20032;-68
2023/04/16 00:56:23;;;;;;;15.38;3.55;;;;;;;7.42;100.00;102134.94;4900568;29;20036;-68
2023/04/16 00:58:49;;;;;;;15.07;3.78;;;;;;;7.40;100.00;102134.03;4917346;29;20020;-69
2023/04/16 01:01:15;;;;;;;11.48;3.20;;;;;;;7.42;100.00;102134.03;4903391;29;20041;-68
2023/04/16 01:03:45;;;;;;;13.02;3.83;;;;;;;7.43;100.00;102127.94;4909404;29;20032;-68
2023/04/16 01:06:12;;;;;;;15.48;4.10;;;;;;;7.44;100.00;102125.31;4915891;29;20060;-68
2023/04/16 01:08:38;;;;;;;7.63;3.17;;;;;;;7.45;100.00;102129.72;4906802;29;20179;-68
2023/04/16 01:11:03;;;;;;;12.38;3.72;;;;;;;7.46;100.00;102134.09;4900295;29;20429;-68
2023/04/16 01:13:29;;;;;;;7.82;3.35;;;;;;;7.47;100.00;102129.75;4917235;29;20028;-68
2023/04/16 01:15:55;;;;;;;10.45;3.50;;;;;;;7.47;100.00;102129.75;4916086;29;20166;-69
2023/04/16 01:18:21;;;;;;;6.30;3.10;;;;;;;7.46;100.00;102127.94;4898758;29;20016;-69
2023/04/16 01:20:50;;;;;;;13.98;4.38;;;;;;;7.42;100.00;102127.06;4909768;29;20040;-69
2023/04/16 01:23:17;;;;;;;21.20;4.35;;;;;;;7.45;100.00;102126.19;4916618;29;20031;-67
2023/04/16 01:25:43;;;;;;;16.80;3.90;;;;;;;7.46;100.00;102122.69;4917234;29;20054;-67
2023/04/16 01:28:09;;;;;;;6.60;3.00;;;;;;;7.50;100.00;102124.50;4908763;29;20047;-67
2023/04/16 01:30:35;;;;;;;10.18;3.20;;;;;;;7.50;100.00;102122.75;4917006;29;20118;-67
2023/04/16 01:33:23;;;;;;;10.88;3.25;;;;;;;7.55;100.00;102125.44;4908096;29;20111;-67
2023/04/16 01:35:48;;;;;;;11.80;4.20;;;;;;;7.56;100.00;102128.94;4896125;29;20127;-67
2023/04/16 01:38:14;;;;;;;9.50;3.28;;;;;;;7.56;100.00;102135.09;4915379;29;20032;-67
2023/04/16 01:40:40;;;;;;;12.48;3.30;;;;;;;7.59;100.00;102134.25;4915362;29;20043;-67
2023/04/16 01:43:05;;;;;;;12.05;3.22;;;;;;;7.56;100.00;102137.72;4916651;29;20546;-67
2023/04/16 01:45:32;;;;;;;10.93;3.55;;;;;;;7.53;100.00;102137.69;4930937;29;20040;-67
2023/04/16 01:47:58;;;;;;;9.65;3.10;;;;;;;7.56;100.00;102139.50;4917121;29;20082;-67
2023/04/16 01:50:23;;;;;;;12.07;3.28;;;;;;;7.55;100.00;102135.97;4916497;29;20498;-67
2023/04/16 01:52:49;;;;;;;11.48;3.40;;;;;;;7.58;100.00;102129.84;4907069;29;20040;-67
2023/04/16 01:55:15;;;;;;;14.75;3.72;;;;;;;7.60;100.00;102142.19;4895195;29;20479;-67
2023/04/16 01:57:40;;;;;;;11.85;3.03;;;;;;;7.59;100.00;102136.88;4877148;29;20071;-67
2023/04/16 02:00:07;;;;;;;11.20;3.45;;;;;;;7.61;100.00;102141.31;4895872;29;20045;-66
2023/04/16 02:02:44;;;;;;;10.32;3.38;;;;;;;7.61;100.00;102140.41;4913380;29;20432;-67
2023/04/16 02:05:11;;;;;;;13.00;3.90;;;;;;;7.63;100.00;102144.84;4913871;29;20040;-67
2023/04/16 02:07:36;;;;;;;9.90;3.20;;;;;;;7.63;100.00;102142.22;4906603;29;20043;-67
2023/04/16 02:10:04;;;;;;;13.10;3.20;;;;;;;7.62;100.00;102140.44;4930615;29;20046;-67
2023/04/16 02:12:30;;;;;;;9.60;3.30;;;;;;;7.62;100.00;102143.09;4914486;29;20039;-67
2023/04/16 02:14:56;;;;;;;9.73;3.50;;;;;;;7.62;100.00;102140.44;4909220;29;20036;-67
2023/04/16 02:17:24;;;;;;;7.93;3.95;;;;;;;7.65;100.00;102140.47;4902992;29;20091;-67
2023/04/16 02:20:04;;;;;;;9.93;3.13;;;;;;;7.63;100.00;102139.56;4894987;29;20041;-66
2023/04/16 02:22:31;;;;;;;9.45;3.25;;;;;;;7.60;100.00;102136.03;4903229;29;20127;-67
2023/04/16 02:24:56;;;;;;;10.40;2.90;;;;;;;7.56;100.00;102127.19;4897578;29;20433;-67
2023/04/16 02:27:22;;;;;;;8.02;3.38;;;;;;;7.58;100.00;102135.13;4907534;29;20365;-67
2023/04/16 02:29:50;;;;;;;9.45;3.45;;;;;;;7.54;100.00;102127.19;4926274;28;20138;-67
2023/04/16 02:32:17;;;;;;;11.40;3.30;;;;;;;7.54;100.00;102135.09;4914202;29;20433;-67
2023/04/16 02:34:44;;;;;;;8.50;3.88;;;;;;;7.53;100.00;102133.31;4914516;29;20036;-67
2023/04/16 02:37:10;;;;;;;9.80;3.60;;;;;;;7.53;100.00;102137.69;4913846;29;20044;-67
2023/04/16 02:39:36;;;;;;;12.05;3.28;;;;;;;7.53;100.00;102129.78;4915736;29;20035;-67
2023/04/16 02:42:01;;;;;;;8.60;3.40;;;;;;;7.56;100.00;102134.22;4915521;29;20070;-67
2023/04/16 02:44:27;;;;;;;9.10;3.90;;;;;;;7.54;100.00;102137.72;4898379;29;20062;-67
2023/04/16 02:46:53;;;;;;;13.20;3.78;;;;;;;7.54;100.00;102140.38;4898450;29;20051;-67
2023/04/16 02:49:18;;;;;;;15.55;3.83;;;;;;;7.55;100.00;102146.53;4898300;29;20033;-67
2023/04/16 02:51:44;;;;;;;10.80;3.78;;;;;;;7.53;100.00;102142.97;4915463;29;20035;-67
2023/04/16 02:54:09;;;;;;;9.52;4.13;;;;;;;7.52;100.00;102150.00;4898135;29;20155;-76
2023/04/16 02:56:35;;;;;;;10.65;3.97;;;;;;;7.54;100.00;102147.38;4898158;29;20079;-76
2023/04/16 02:59:00;;;;;;;10.55;3.85;;;;;;;7.54;100.00;102143.00;4882484;29;20039;-75
2023/04/16 03:01:27;;;;;;;10.13;4.35;;;;;;;7.56;100.00;102139.50;4886736;29;20095;-76
2023/04/16 03:03:52;;;;;;;10.02;3.88;;;;;;;7.59;100.00;102153.59;4878114;29;20067;-76
2023/04/16 03:06:18;;;;;;;10.48;3.97;;;;;;;7.59;100.00;102156.25;4895166;29;20068;-76
2023/04/16 03:08:43;;;;;;;12.27;4.65;;;;;;;7.59;100.00;102152.69;4908833;29;20032;-76
2023/04/16 03:11:09;;;;;;;11.90;4.78;;;;;;;7.60;100.00;102152.72;4915140;29;20032;-76
2023/04/16 03:13:35;;;;;;;10.85;4.75;;;;;;;7.58;100.00;102159.72;4913827;29;20063;-76
2023/04/16 03:16:00;;;;;;;10.43;4.50;;;;;;;7.56;100.00;102163.22;4915013;29;20372;-76
2023/04/16 03:18:26;;;;;;;16.95;5.80;;;;;;;7.58;100.00;102161.47;4895636;29;20028;-76
2023/04/16 03:20:52;;;;;;;11.93;5.32;;;;;;;7.58;100.00;102161.47;4910472;29;20071;-76
2023/04/16 03:23:18;;;;;;;21.73;6.55;;;;;;;7.56;100.00;102161.47;4898107;29;20535;-76
2023/04/16 03:25:46;;;;;;;15.43;6.30;;;;;;;7.56;100.00;102160.56;4915067;29;20075;-76
2023/04/16 03:28:13;;;;;;;15.63;5.93;;;;;;;7.53;100.00;102167.56;4897595;29;20440;-76
2023/04/16 03:30:39;;;;;;;12.70;5.93;;;;;;;7.54;100.00;102163.19;4897942;29;20055;-76
2023/04/16 03:33:06;;;;;;;12.45;5.82;;;;;;;7.54;100.00;102163.19;4903340;29;20495;-76
2023/04/16 03:35:32;;;;;;;16.92;6.15;;;;;;;7.55;100.00;102159.69;4912688;29;20047;-76
2023/04/16 03:37:57;;;;;;;15.63;6.60;;;;;;;7.54;100.00;102160.53;4914642;29;20028;-76
2023/04/16 03:40:23;;;;;;;13.32;6.22;;;;;;;7.52;100.00;102163.19;4927790;29;20151;-75
2023/04/16 03:42:49;;;;;;;16.55;6.32;;;;;;;7.54;100.00;102164.09;4893208;29;20047;-76
2023/04/16 03:45:15;;;;;;;13.20;6.43;;;;;;;7.54;100.00;102168.47;4893575;29;20519;-76
2023/04/16 03:47:41;;;;;;;12.93;6.13;;;;;;;7.54;100.00;102169.38;4899111;29;20039;-76
2023/04/16 03:50:08;;;;;;;15.27;6.05;;;;;;;7.50;100.00;102164.91;4931412;29;20134;-76
2023/04/16 03:52:35;;;;;;;15.25;6.75;;;;;;;7.49;100.00;102160.53;4933205;29;20063;-76
2023/04/16 03:55:02;;;;;;;15.50;6.00;;;;;;;7.50;100.00;102164.03;4917326;29;20558;-76
2023/04/16 03:57:29;;;;;;;13.02;6.72;;;;;;;7.54;100.00;102163.19;4932990;29;20191;-76
2023/04/16 04:00:00;;;;;;;13.30;6.25;;;;;;;7.55;100.00;102162.34;4930055;28;20441;-76
2023/04/16 04:02:28;;;;;;;15.50;6.65;;;;;;;7.58;100.00;102161.47;4902761;29;20040;-76
2023/04/16 04:04:54;;;;;;;14.32;6.55;;;;;;;7.60;100.00;102165.03;4918386;29;20032;-76
2023/04/16 04:07:19;;;;;;;14.90;6.72;;;;;;;7.59;100.00;102169.44;4907378;29;20124;-76
2023/04/16 04:09:45;;;;;;;12.63;6.57;;;;;;;7.60;100.00;102167.66;4916758;29;20028;-76
2023/04/16 04:12:10;;;;;;;14.45;6.78;;;;;;;7.59;100.00;102168.50;4916881;29;20072;-76
2023/04/16 04:14:39;;;;;;;15.10;7.00;;;;;;;7.58;100.00;102167.63;4932432;29;20039;-76
2023/04/16 04:17:06;;;;;;;14.32;6.55;;;;;;;7.57;100.00;102163.25;4932341;29;20490;-76
2023/04/16 04:19:31;;;;;;;15.32;6.88;;;;;;;7.57;100.00;102171.16;4911813;29;20038;-76
2023/04/16 04:21:57;;;;;;;13.57;5.82;;;;;;;7.58;100.00;102172.03;4932378;28;20040;-76
2023/04/16 04:24:23;;;;;;;17.25;6.57;;;;;;;7.59;100.00;102171.16;4932279;29;20040;-76
2023/04/16 04:26:48;;;;;;;13.77;5.85;;;;;;;7.60;100.00;102172.94;4916793;29;20044;-76
2023/04/16 04:29:14;;;;;;;11.32;6.50;;;;;;;7.60;100.00;102175.56;4916482;29;20062;-76
2023/04/16 04:31:39;;;;;;;12.45;6.07;;;;;;;7.57;100.00;102172.88;4932164;28;20040;-76
2023/04/16 04:34:05;;;;;;;14.85;5.95;;;;;;;7.58;100.00;102172.91;4899291;29;20128;-76
2023/04/16 04:36:31;;;;;;;16.15;5.88;;;;;;;7.58;100.00;102180.81;4897857;29;20031;-76
2023/04/16 04:38:57;;;;;;;13.80;6.45;;;;;;;7.60;100.00;102175.56;4878587;29;20453;-77
2023/04/16 04:41:23;;;;;;;14.35;6.50;;;;;;;7.62;100.00;102180.00;4893648;29;20135;-77
2023/04/16 04:43:48;;;;;;;19.60;6.30;;;;;;;7.62;100.00;102185.28;4917417;29;20024;-77
2023/04/16 04:46:15;;;;;;;16.05;5.90;;;;;;;7.61;100.00;102183.47;4916139;29;20047;-77
2023/04/16 04:48:40;;;;;;;21.05;6.68;;;;;;;7.60;100.00;102187.00;4899957;29;20033;-77
2023/04/16 04:51:06;;;;;;;13.45;6.47;;;;;;;7.59;100.00;102193.16;4887971;29;20083;-76
2023/04/16 04:53:31;;;;;;;12.00;6.05;;;;;;;7.59;100.00;102186.97;4898456;29;20827;-77
2023/04/16 04:55:57;;;;;;;14.13;6.20;;;;;;;7.58;100.00;102188.72;4900123;29;20102;-77
2023/04/16 04:58:22;;;;;;;17.48;6.78;;;;;;;7.58;100.00;102187.84;4897543;29;20028;-77
2023/04/16 05:00:48;;;;;;;14.68;6.55;;;;;;;7.59;100.00;102193.16;4892912;29;20047;-77
2023/04/16 05:03:19;;;;;;;16.85;6.88;;;;;;;7.56;100.00;102200.13;4890642;29;20530;-77
2023/04/16 05:05:44;;;;;;;13.40;6.43;;;;;;;7.56;100.00;102194.84;4917164;29;20044;-77
2023/04/16 05:08:10;;;;;;;14.13;6.97;;;;;;;7.58;100.00;102195.75;4907569;29;20058;-77
2023/04/16 05:10:35;;;;;;;15.40;6.90;;;;;;;7.54;100.00;102185.19;4916918;29;20040;-77
2023/04/16 05:13:01;;;;;;;15.48;6.70;;;;;;;7.58;100.00;102193.13;4915900;29;20028;-77
2023/04/16 05:15:26;;;;;;;14.93;6.93;;;;;;;7.56;100.00;102187.81;4916995;29;20124;-77
2023/04/16 05:17:52;;;;;;;18.33;7.47;;;;;;;7.56;100.00;102187.81;4899730;29;20024;-77
2023/04/16 05:20:17;;;;;;;12.18;6.25;;;;;;;7.59;100.00;102194.88;4909643;29;20492;-77
2023/04/16 05:22:43;;;;;;;14.85;6.75;;;;;;;7.61;100.00;102198.41;4916832;29;20035;-77
2023/04/16 05:25:09;;;;;;;14.65;6.90;;;;;;;7.60;100.00;102197.53;4917152;29;20088;-77
2023/04/16 05:27:35;;;;;;;15.93;7.25;;;;;;;7.59;100.00;102192.25;4916604;29;20154;-77
2023/04/16 05:30:01;;;;;;;15.98;7.40;;;;;;;7.61;100.00;102206.34;4915603;29;20036;-77
2023/04/16 05:32:27;;;;;;;15.30;7.22;;;;;;;7.60;100.00;102210.72;4900928;29;20056;-77
2023/04/16 05:34:52;;;;;;;17.17;7.50;;;;;;;7.60;100.00;102218.63;4914848;29;20044;-77
2023/04/16 05:37:18;;;;;;;14.90;7.10;;;;;;;7.58;100.00;102212.44;4915479;29;20044;-77
2023/04/16 05:39:43;;;;;;;19.25;7.43;;;;;;;7.60;100.00;102216.00;4916773;29;20107;-77
2023/04/16 05:42:09;;;;;;;20.05;7.90;;;;;;;7.63;100.00;102217.78;4907877;29;20032;-77
2023/04/16 05:44:34;;;;;;;21.00;7.50;;;;;;;7.65;100.00;102219.56;4893720;29;20119;-77
2023/04/16 05:47:00;;;;;;;21.55;7.88;;;;;;;7.65;100.00;102214.31;4916602;29;20385;-77
2023/04/16 05:49:25;;;;;;;21.25;9.13;;;;;;;7.63;100.00;102226.56;4916466;29;20079;-77
2023/04/16 05:51:51;;;;;;;21.25;8.13;;;;;;;7.63;100.00;102231.84;4916177;29;20042;-76
2023/04/16 05:54:16;;;;;;;26.58;9.35;;;;;;;7.61;100.00;102225.66;4912549;29;20483;-77
2023/04/16 05:56:41;;;;;;;24.13;8.75;;;;;;;7.61;100.00;102227.44;4903673;29;20036;-77
2023/04/16 05:59:07;;;;;;;17.98;8.38;;;;;;;7.60;100.00;102230.94;4888434;29;20070;-77
2023/04/16 06:01:32;;;;;;;19.95;8.88;;;;;;;7.59;100.00;102234.41;4901691;29;20040;-68
2023/04/16 06:03:58;;;;;;;18.77;9.07;;;;;;;7.59;100.00;102232.69;4905174;29;20321;-68
2023/04/16 06:06:23;;;;;;;20.85;8.43;;;;;;;7.60;100.00;102238.84;4892627;29;20453;-67
2023/04/16 06:08:49;;;;;;;26.98;9.73;;;;;;;7.57;100.00;102229.16;4903641;29;20021;-67
2023/04/16 06:11:14;;;;;;;24.10;9.43;;;;;;;7.60;100.00;102241.50;4895929;29;20091;-67
2023/04/16 06:13:41;;;;;;;20.58;8.75;;;;;;;7.62;100.00;102243.28;4897086;29;20472;-67
2023/04/16 06:16:06;;;;;;;24.67;8.70;;;;;;;7.64;100.00;102233.63;4896757;29;20095;-68
2023/04/16 06:18:32;;;;;;;24.27;11.13;;;;;;;7.64;100.00;102238.00;4896849;29;20049;-67
2023/04/16 06:20:58;;;;;;;24.27;9.48;;;;;;;7.66;100.00;102245.06;4897033;29;20075;-67
2023/04/16 06:23:23;;;;;;;26.17;9.20;;;;;;;7.66;100.00;102238.91;4896896;29;20036;-67
2023/04/16 06:25:49;;;;;;;25.05;9.07;;;;;;;7.62;100.00;102245.91;4888896;29;20041;-67
2023/04/16 06:28:14;;;;;;;23.17;10.80;;;;;;;7.61;100.00;102245.88;4910430;29;20032;-67
2023/04/16 06:30:40;;;;;;;24.25;9.40;;;;;;;7.62;100.00;102245.91;4915845;29;20440;-68
2023/04/16 06:33:05;;;;;;;18.92;8.75;;;;;;;7.63;100.00;102247.66;4915547;29;20131;-68
2023/04/16 06:35:31;;;;;;;30.90;11.15;;;;;;;7.64;100.00;102246.81;4898602;29;20044;-68
2023/04/16 06:37:56;;;;;;;34.80;9.40;;;;;;;7.63;100.00;102239.75;4905326;29;20032;-68
2023/04/16 06:40:22;;;;;;;32.88;10.02;;;;;;;7.68;100.00;102251.25;4899497;29;20051;-68
2023/04/16 06:42:47;;;;;;;28.90;9.48;;;;;;;7.70;100.00;102253.91;4896484;29;20477;-68
2023/04/16 06:45:13;;;;;;;26.13;9.52;;;;;;;7.72;100.00;102257.47;4878057;29;20047;-68
2023/04/16 06:47:38;;;;;;;28.98;10.90;;;;;;;7.73;100.00;102260.09;4875857;29;20040;-68
2023/04/16 06:50:04;;;;;;;25.33;10.50;;;;;;;7.76;100.00;102264.53;4889211;29;20036;-68
2023/04/16 06:52:30;;;;;;;24.17;10.38;;;;;;;7.78;100.00;102262.78;4897664;29;20078;-68
2023/04/16 06:54:55;;;;;;;25.85;10.38;;;;;;;7.77;100.00;102268.06;4914777;29;20380;-68
2023/04/16 06:57:21;;;;;;;26.98;10.52;;;;;;;7.79;100.00;102266.31;4914695;29;20028;-68
2023/04/16 06:59:46;;;;;;;28.13;10.90;;;;;;;7.81;100.00;102273.38;4913377;29;20036;-68
2023/04/16 07:02:12;;;;;;;31.85;11.23;;;;;;;7.81;100.00;102277.78;4897276;29;20037;-68
2023/04/16 07:04:37;;;;;;;25.38;10.40;;;;;;;7.78;100.00;102273.34;4915280;29;20052;-68
2023/04/16 07:07:03;;;;;;;32.75;11.60;;;;;;;7.78;100.00;102281.25;4905655;29;20051;-68
2023/04/16 07:09:28;;;;;;;28.95;11.57;;;;;;;7.81;100.00;102283.03;4897562;29;20050;-68
2023/04/16 07:11:54;;;;;;;27.55;12.02;;;;;;;7.80;100.00;102282.16;4915212;29;20040;-68
2023/04/16 07:14:19;;;;;;;37.53;13.23;;;;;;;7.82;100.00;102290.09;4915113;29;20051;-68
2023/04/16 07:16:45;;;;;;;29.17;11.43;;;;;;;7.84;100.00;102280.44;4915065;29;20111;-68
2023/04/16 07:19:10;;;;;;;32.90;11.40;;;;;;;7.85;100.00;102293.66;4890038;29;20068;-68
2023/04/16 07:21:36;;;;;;;33.58;13.85;;;;;;;7.88;100.00;102288.41;4914821;29;20083;-68
2023/04/16 07:24:02;;;;;;;28.35;12.88;;;;;;;7.88;100.00;102293.69;4915146;29;20048;-68
2023/04/16 07:26:27;;;;;;;36.25;13.90;;;;;;;7.91;100.00;102292.84;4915031;29;20080;-68
2023/04/16 07:28:52;;;;;;;25.17;12.38;;;;;;;7.93;100.00;102302.53;4915151;29;20542;-68
2023/04/16 07:31:18;;;;;;;31.05;12.48;;;;;;;7.95;100.00;102294.66;4914991;29;20106;-68
2023/04/16 07:33:43;;;;;;;38.63;14.00;;;;;;;7.93;100.00;102299.03;4914872;29;20067;-68
2023/04/16 07:36:09;;;;;;;33.30;13.52;;;;;;;7.96;100.00;102299.97;4913266;29;20499;-68
2023/04/16 07:38:35;;;;;;;30.77;13.55;;;;;;;7.99;100.00;102299.13;4914947;29;20037;-68
2023/04/16 07:41:00;;;;;;;36.53;13.93;;;;;;;8.00;100.00;102302.63;4915027;29;20029;-68
2023/04/16 07:43:26;;;;;;;39.50;13.35;;;;;;;8.02;100.00;102309.69;4914740;29;20040;-68
2023/04/16 07:45:51;;;;;;;41.03;15.55;;;;;;;8.03;100.00;102310.56;4915032;29;20184;-68
2023/04/16 07:48:17;;;;;;;34.42;14.88;;;;;;;8.05;100.00;102307.09;4914734;29;20455;-68
2023/04/16 07:50:42;;;;;;;36.33;14.75;;;;;;;8.09;100.00;102311.56;4914940;29;20032;-68
2023/04/16 07:53:08;;;;;;;30.58;13.25;;;;;;;8.12;100.00;102319.50;4914905;29;20422;-68
2023/04/16 07:55:34;;;;;;;42.67;15.18;;;;;;;8.14;100.00;102322.16;4914721;29;20043;-68
2023/04/16 07:57:59;;;;;;;34.78;12.48;;;;;;;8.16;100.00;102331.00;4915003;29;20048;-68
2023/04/16 08:00:25;;;;;;;28.85;12.65;;;;;;;8.15;100.00;102321.28;4891832;29;20465;-68
2023/04/16 08:02:50;;;;;;;31.38;12.30;;;;;;;8.18;100.00;102323.94;4902335;29;20572;-68
2023/04/16 08:05:16;;;;;;;39.17;13.27;;;;;;;8.19;100.00;102323.97;4915019;29;20179;-68
2023/04/16 08:07:41;;;;;;;37.33;13.75;;;;;;;8.22;100.00;102336.31;4904198;29;20488;-68
2023/04/16 08:10:07;;;;;;;35.08;14.13;;;;;;;8.24;100.00;102334.59;4914689;29;20073;-68
2023/04/16 08:12:34;;;;;;;30.90;13.10;;;;;;;8.24;100.00;102339.88;4914576;29;20145;-68
2023/04/16 08:14:59;;;;;;;29.67;12.63;;;;;;;8.25;100.00;102343.38;4914582;29;20127;-68
2023/04/16 08:17:24;;;;;;;38.72;16.42;;;;;;;8.28;100.00;102346.94;4897607;29;20454;-68
2023/04/16 08:19:50;;;;;;;31.10;14.52;;;;;;;8.29;100.00;102337.28;4906475;29;20039;-68
2023/04/16 08:22:15;;;;;;;29.15;13.13;;;;;;;8.30;100.00;102350.47;4897479;29;20032;-68
2023/04/16 08:24:41;;;;;;;28.80;12.98;;;;;;;8.31;100.00;102349.63;4914429;29;20807;-68
2023/04/16 08:27:07;;;;;;;25.02;12.32;;;;;;;8.34;100.00;102354.94;4914412;29;20032;-68
2023/04/16 08:29:32;;;;;;;36.03;12.75;;;;;;;8.38;100.00;102350.56;4914440;29;20092;-68
2023/04/16 08:31:58;;;;;;;31.27;12.90;;;;;;;8.42;100.00;102356.81;4914354;29;20166;-68
2023/04/16 08:34:24;;;;;;;25.75;12.52;;;;;;;8.44;100.00;102353.31;4914258;29;20048;-68
2023/04/16 08:36:50;;;;;;;26.77;11.60;;;;;;;8.48;100.00;102354.22;4917798;29;20403;-68
2023/04/16 08:39:15;;;;;;;26.88;11.45;;;;;;;8.50;100.00;102358.66;4917576;29;20074;-68
2023/04/16 08:41:44;;;;;;;27.02;11.93;;;;;;;8.52;100.00;102354.28;4917685;29;20040;-68
2023/04/16 08:44:27;;;;;;;30.15;11.80;;;;;;;8.55;100.00;102353.44;4900854;29;20059;-69
2023/04/16 08:46:57;;;;;;;27.35;11.93;;;;;;;8.58;100.00;102359.66;4900840;29;20044;-69
2023/04/16 08:49:26;;;;;;;27.70;11.40;;;;;;;8.62;100.00;102360.56;4917626;29;20044;-68
2023/04/16 08:51:55;;;;;;;24.40;11.27;;;;;;;8.63;100.00;102359.72;4917533;29;20056;-69
2023/04/16 08:54:24;;;;;;;21.63;10.88;;;;;;;8.65;100.00;102360.59;4917634;29;20581;-68
2023/04/16 08:56:50;;;;;;;24.13;11.35;;;;;;;8.66;100.00;102364.13;4917291;29;20036;-68
2023/04/16 08:59:16;;;;;;;31.42;12.43;;;;;;;8.68;100.00;102365.00;4917512;29;20028;-68
2023/04/16 09:01:42;;;;;;;27.90;11.85;;;;;;;8.70;100.00;102368.56;4884560;29;20059;-69
2023/04/16 09:04:08;;;;;;;29.60;12.55;;;;;;;8.70;100.00;102371.19;4915085;29;20480;-69
2023/04/16 09:06:35;;;;;;;27.70;12.73;;;;;;;8.71;100.00;102371.22;4911221;29;20044;-68
2023/04/16 09:09:03;;;;;;;29.27;13.20;;;;;;;8.77;100.00;102379.19;4913063;29;20038;-68
2023/04/16 09:11:29;;;;;;;29.30;13.20;;;;;;;8.80;100.00;102376.59;4917363;29;20032;-68
2023/04/16 09:13:56;;;;;;;24.13;11.65;;;;;;;8.82;100.00;102377.47;4915940;29;20535;-68
2023/04/16 09:16:22;;;;;;;26.08;12.20;;;;;;;8.85;100.00;102378.38;4917481;29;20024;-68
2023/04/16 09:18:47;;;;;;;27.08;12.90;;;;;;;8.85;100.00;102383.66;4910546;29;20041;-69
2023/04/16 09:21:13;;;;;;;26.42;11.57;;;;;;;8.88;100.00;102386.34;4915397;29;20460;-69
2023/04/16 09:23:39;;;;;;;26.17;12.50;;;;;;;8.87;100.00;102381.94;4917142;29;20468;-69
2023/04/16 09:26:05;;;;;;;24.75;12.85;;;;;;;8.90;100.00;102385.50;4916989;29;20032;-68
2023/04/16 09:28:41;;;;;;;28.08;12.38;;;;;;;8.93;100.00;102392.59;4916956;29;20044;-69
2023/04/16 09:31:12;;;;;;;25.75;13.65;;;;;;;8.94;100.00;102391.69;4917169;29;20450;-68
2023/04/16 09:33:38;;;;;;;29.50;13.88;;;;;;;8.96;100.00;102398.75;4916848;29;20178;-69
2023/04/16 09:36:05;;;;;;;29.92;13.35;;;;;;;8.97;100.00;102395.25;4915774;29;20469;-68
2023/04/16 09:38:50;;;;;;;30.13;13.57;;;;;;;8.99;100.00;102401.44;4916849;29;20036;-68
2023/04/16 09:41:16;;;;;;;26.17;13.52;;;;;;;8.99;100.00;102400.56;4916800;29;20118;-68
2023/04/16 09:44:08;;;;;;;33.13;14.70;;;;;;;9.01;100.00;102407.63;4910100;29;20028;-69
2023/04/16 09:46:40;;;;;;;32.05;13.70;;;;;;;9.02;100.00;102408.50;4911527;29;20143;-68
2023/04/16 09:49:16;;;;;;;51.15;27.20;;;;;;;9.02;100.00;102409.38;4916783;29;20051;-68
2023/04/16 09:51:44;;;;;;;39.45;15.88;;;;;;;9.03;100.00;102413.81;4916672;29;20079;-69
2023/04/16 09:54:09;;;;;;;25.83;13.20;;;;;;;9.04;100.00;102412.94;4916492;29;20029;-68
2023/04/16 09:56:41;;;;;;;30.13;14.13;;;;;;;9.06;100.00;102420.88;4916657;29;20479;-69
2023/04/16 09:59:07;;;;;;;25.20;14.63;;;;;;;9.09;100.00;102414.75;4916515;29;20463;-69
2023/04/16 10:01:35;;;;;;;27.60;14.00;;;;;;;9.11;100.00;102416.53;4900776;29;20488;-68
2023/04/16 10:04:00;;;;;;;26.80;14.75;;;;;;;9.14;100.00;102416.53;4912868;29;20078;-69
2023/04/16 10:06:28;;;;;;;28.20;14.95;;;;;;;9.16;100.00;102414.81;4911004;29;20480;-68
2023/04/16 10:08:57;;;;;;;25.98;13.45;;;;;;;9.21;100.00;102421.03;4911097;29;20401;-68
2023/04/16 10:11:23;;;;;;;23.77;13.40;;;;;;;9.22;100.00;102425.47;4916176;29;20464;-69
2023/04/16 10:13:48;;;;;;;29.52;14.55;;;;;;;9.25;100.00;102414.03;4899307;29;20539;-69
2023/04/16 10:16:14;;;;;;;28.98;13.60;;;;;;;9.27;100.00;102417.53;4916306;29;20032;-69
2023/04/16 10:18:41;;;;;;;23.50;12.80;;;;;;;9.29;100.00;102423.72;4910285;29;20108;-68
2023/04/16 10:21:10;;;;;;;22.58;11.60;;;;;;;9.29;100.00;102423.72;4913520;29;20035;-68
2023/04/16 10:23:37;;;;;;;24.95;13.57;;;;;;;9.31;100.00;102426.41;4916110;29;20040;-68
2023/04/16 10:26:04;;;;;;;26.52;12.65;;;;;;;9.33;100.00;102424.66;4915848;29;20086;-68
2023/04/16 10:28:30;;;;;;;28.35;14.38;;;;;;;9.34;100.00;102421.13;4883456;29;20389;-69
2023/04/16 10:30:57;;;;;;;31.75;13.55;;;;;;;9.35;100.00;102420.28;4916097;29;20632;-69
2023/04/16 10:33:29;;;;;;;27.70;13.65;;;;;;;9.37;100.00;102422.06;4915833;29;20130;-68
2023/04/16 10:36:12;;;;;;;20.67;12.02;;;;;;;9.37;100.00;102431.72;4914177;29;20131;-69
2023/04/16 10:38:48;;;;;;;24.25;12.73;;;;;;;9.37;100.00;102434.38;4915722;29;20440;-68
2023/04/16 10:41:14;;;;;;;21.75;12.40;;;;;;;9.41;100.00;102434.41;4915808;29;20032;-68
2023/04/16 10:43:43;;;;;;;25.85;13.23;;;;;;;9.43;100.00;102432.66;4915619;29;20506;-69
2023/04/16 10:46:36;;;;;;;20.80;12.23;;;;;;;9.45;100.00;102430.94;4915719;29;20044;-68
2023/04/16 10:49:12;;;;;;;24.20;13.05;;;;;;;9.47;100.00;102433.59;4914452;29;20088;-69
2023/04/16 10:51:38;;;;;;;21.95;12.35;;;;;;;9.47;100.00;102436.25;4915532;29;20068;-68
2023/04/16 10:54:13;;;;;;;22.88;12.32;;;;;;;9.50;100.00;102430.97;4915757;29;20079;-69
2023/04/16 10:56:39;;;;;;;19.10;10.95;;;;;;;9.55;100.00;102431.00;4914665;29;20044;-68
2023/04/16 10:59:06;;;;;;;21.45;11.80;;;;;;;9.58;100.00;102431.03;4914085;29;20032;-69
2023/04/16 11:01:37;;;;;;;18.23;11.50;;;;;;;9.59;100.00;102430.16;4908348;29;20368;-68
2023/04/16 11:04:20;;;;;;;23.05;10.65;;;;;;;9.61;100.00;102425.75;4912626;29;20360;-68
2023/04/16 11:07:04;;;;;;;16.23;9.82;;;;;;;9.58;100.00;102429.25;4890187;29;20127;-68
2023/04/16 11:10:05;;;;;;;20.42;9.60;;;;;;;9.56;100.00;102433.66;4897752;29;20037;-68
2023/04/16 11:12:45;;;;;;;20.75;10.55;;;;;;;9.58;100.00;102423.09;4915225;29;20040;-69